createdAt,value
2019-02-24T12:52:09.674Z,18.67
2019-02-24T12:53:09.647Z,19.38
2019-02-24T12:54:09.646Z,20.08
2019-02-24T12:55:09.625Z,20.64
2019-02-24T12:56:09.614Z,21.27
2019-02-24T12:57:09.601Z,21.85
2019-02-24T12:58:09.591Z,22.02
2019-02-24T12:59:09.588Z,22.50
2019-02-24T13:00:09.570Z,22.83
2019-02-24T13:01:09.558Z,23.12
2019-02-24T13:02:09.560Z,23.34
2019-02-24T13:03:09.538Z,23.49
2019-02-24T13:04:09.532Z,23.57
2019-02-24T13:05:09.510Z,23.40
2019-02-24T13:06:09.500Z,23.42
2019-02-24T13:07:09.492Z,23.35
2019-02-24T13:08:09.478Z,23.27
2019-02-24T13:09:09.474Z,23.24
2019-02-24T13:10:09.454Z,23.11
2019-02-24T13:11:09.446Z,22.65
2019-02-24T13:12:09.439Z,22.49
2019-02-24T13:13:09.427Z,22.20
2019-02-24T13:14:09.419Z,21.94
2019-02-24T13:15:09.402Z,21.83
2019-02-24T13:16:09.390Z,21.99
2019-02-24T13:17:09.377Z,21.81
2019-02-24T13:18:09.367Z,21.94
2019-02-24T13:19:09.374Z,21.99
2019-02-24T13:20:10.103Z,22.09
2019-02-24T13:21:09.333Z,21.79
2019-02-24T13:22:09.323Z,21.81
2019-02-24T13:23:09.313Z,21.69
2019-02-24T13:24:09.308Z,21.60
2019-02-24T13:25:09.991Z,21.46
2019-02-24T13:26:09.278Z,21.29
2019-02-24T13:27:09.306Z,21.30
2019-02-24T13:28:09.258Z,21.45
2019-02-24T13:29:09.254Z,21.51
2019-02-24T13:30:09.236Z,21.50
2019-02-24T13:31:09.226Z,21.44
2019-02-24T13:32:14.929Z,21.45
2019-02-24T13:33:10.211Z,21.56
2019-02-24T13:34:09.198Z,21.51
2019-02-24T13:35:09.178Z,21.61
2019-02-24T13:36:09.171Z,21.32
2019-02-24T13:37:09.161Z,20.99
2019-02-24T13:38:09.148Z,20.83
2019-02-24T13:39:09.143Z,20.69
2019-02-24T13:40:09.134Z,20.38
2019-02-24T13:41:09.115Z,20.33
2019-02-24T13:42:09.103Z,20.21
2019-02-24T13:43:09.092Z,20.00
2019-02-24T13:44:09.104Z,19.75
2019-02-24T13:45:09.068Z,19.69
2019-02-24T13:46:09.057Z,19.60
2019-02-24T13:47:09.045Z,19.43
2019-02-24T13:48:09.036Z,19.57
2019-02-24T13:49:09.035Z,19.42
2019-02-24T13:50:09.019Z,19.47
2019-02-24T13:51:09.004Z,19.50
2019-02-24T13:52:08.995Z,19.50
2019-02-24T13:53:08.986Z,19.51
2019-02-24T13:54:08.977Z,19.73
2019-02-24T13:55:08.960Z,19.73
2019-02-24T13:56:08.947Z,19.75
2019-02-24T13:57:08.943Z,19.86
2019-02-24T13:58:08.930Z,19.87
2019-02-24T13:59:08.925Z,19.86
2019-02-24T14:00:08.902Z,20.05
2019-02-24T14:01:08.889Z,20.06
2019-02-24T14:02:08.879Z,20.16
2019-02-24T14:03:08.871Z,20.20
2019-02-24T14:04:08.875Z,20.10
2019-02-24T14:05:08.844Z,19.94
2019-02-24T14:06:08.854Z,19.78
2019-02-24T14:07:08.823Z,19.78
2019-02-24T14:08:08.814Z,19.66
2019-02-24T14:09:08.801Z,19.65
2019-02-24T14:10:08.798Z,19.60
2019-02-24T14:11:08.779Z,19.66
2019-02-24T14:12:08.770Z,19.63
2019-02-24T14:13:08.755Z,19.53
2019-02-24T14:14:09.958Z,19.40
2019-02-24T14:15:08.748Z,19.40
2019-02-24T14:16:08.723Z,19.31
2019-02-24T14:17:08.712Z,19.11
2019-02-24T14:18:08.698Z,19.05
2019-02-24T14:19:08.691Z,18.92
2019-02-24T14:20:08.693Z,18.80
2019-02-24T14:21:08.670Z,18.82
2019-02-24T14:22:09.798Z,18.70
2019-02-24T14:23:08.643Z,18.70
2019-02-24T14:24:08.632Z,18.79
2019-02-24T14:25:08.632Z,18.80
2019-02-24T14:26:08.608Z,18.77
2019-02-24T14:27:08.599Z,18.80
2019-02-24T14:28:08.589Z,18.83
2019-02-24T14:29:08.578Z,18.67
2019-02-24T14:30:08.572Z,18.77
2019-02-24T14:31:08.554Z,18.77
2019-02-24T14:32:08.545Z,18.79
2019-02-24T14:33:08.530Z,18.73
2019-02-24T14:34:08.519Z,18.79
2019-02-24T14:35:08.517Z,18.79
2019-02-24T14:36:08.497Z,18.80
2019-02-24T14:37:08.497Z,18.82
2019-02-24T14:38:08.473Z,18.87
2019-02-24T14:39:08.463Z,18.77
2019-02-24T14:40:08.472Z,18.76
2019-02-24T14:41:09.005Z,18.79
2019-02-24T14:42:08.431Z,18.79
2019-02-24T14:43:08.417Z,18.74
2019-02-24T14:44:08.404Z,18.73
2019-02-24T14:45:08.395Z,18.61
2019-02-24T14:46:08.392Z,18.54
2019-02-24T14:47:08.372Z,18.37
2019-02-24T14:48:08.365Z,18.12
2019-02-24T14:49:08.353Z,17.89
2019-02-24T14:50:08.346Z,17.89
2019-02-24T14:51:08.338Z,17.70
2019-02-24T14:52:08.324Z,17.43
2019-02-24T14:53:08.310Z,17.35
2019-02-24T14:54:08.295Z,17.06
2019-02-24T14:55:08.289Z,16.88
2019-02-24T14:56:08.303Z,16.74
2019-02-24T14:57:08.262Z,16.62
2019-02-24T14:58:08.251Z,16.55
2019-02-24T14:59:08.243Z,16.60
2019-02-24T15:00:08.226Z,16.44
2019-02-24T15:01:08.224Z,16.25
2019-02-24T15:02:08.203Z,16.30
2019-02-24T15:03:08.213Z,16.23
2019-02-24T15:04:08.181Z,16.11
2019-02-24T15:05:08.191Z,16.09
2019-02-24T15:06:08.185Z,16.01
2019-02-24T15:07:08.153Z,16.03
2019-02-24T15:08:08.141Z,15.86
2019-02-24T15:09:08.123Z,15.88
2019-02-24T15:10:08.111Z,15.76
2019-02-24T15:11:08.105Z,15.70
2019-02-24T15:12:08.089Z,15.64
2019-02-24T15:13:08.087Z,15.60
2019-02-24T15:14:08.063Z,15.61
2019-02-24T15:15:08.077Z,15.51
2019-02-24T15:16:08.074Z,15.49
2019-02-24T15:17:08.029Z,15.59
2019-02-24T15:18:08.018Z,15.56
2019-02-24T15:19:08.124Z,15.46
2019-02-24T15:20:08.005Z,15.39
2019-02-24T15:21:07.997Z,15.45
2019-02-24T15:22:08.011Z,15.43
2019-02-24T15:23:07.986Z,15.41
2019-02-24T15:24:07.951Z,15.30
2019-02-24T15:25:07.943Z,15.30
2019-02-24T15:26:07.937Z,15.26
2019-02-24T15:27:07.939Z,15.21
2019-02-24T15:28:07.907Z,15.17
2019-02-24T15:29:08.768Z,15.15
2019-02-24T15:30:07.895Z,15.08
2019-02-24T15:31:07.888Z,15.02
2019-02-24T15:32:07.893Z,15.08
2019-02-24T15:33:07.874Z,15.01
2019-02-24T15:34:07.876Z,15.02
2019-02-24T15:35:07.829Z,15.08
2019-02-24T15:36:07.817Z,14.99
2019-02-24T15:37:07.825Z,14.98
2019-02-24T15:38:07.792Z,14.95
2019-02-24T15:39:07.791Z,14.98
2019-02-24T15:40:07.771Z,14.99
2019-02-24T15:41:07.761Z,14.93
2019-02-24T15:42:08.219Z,14.87
2019-02-24T15:43:07.742Z,14.94
2019-02-24T15:44:07.725Z,14.86
2019-02-24T15:45:07.756Z,14.86
2019-02-24T15:46:07.702Z,14.84
2019-02-24T15:47:07.711Z,14.83
2019-02-24T15:48:07.683Z,14.80
2019-02-24T15:49:07.670Z,14.69
2019-02-24T15:50:07.659Z,14.69
2019-02-24T15:51:07.657Z,14.68
2019-02-24T15:52:10.159Z,14.69
2019-02-24T15:53:07.640Z,14.69
2019-02-24T15:54:07.631Z,14.68
2019-02-24T15:55:07.605Z,14.72
2019-02-24T15:56:07.589Z,14.67
2019-02-24T15:57:07.579Z,14.74
2019-02-24T15:58:07.579Z,14.67
2019-02-24T15:59:07.561Z,14.67
2019-02-24T16:00:07.547Z,14.65
2019-02-24T16:01:07.532Z,14.57
2019-02-24T16:02:07.523Z,14.64
2019-02-24T16:03:07.529Z,14.64
2019-02-24T16:04:07.534Z,14.60
2019-02-24T16:05:07.588Z,14.61
2019-02-24T16:06:07.475Z,14.60
2019-02-24T16:07:07.465Z,14.53
2019-02-24T16:08:07.461Z,14.47
2019-02-24T16:09:07.484Z,14.49
2019-02-24T16:10:07.439Z,14.49
2019-02-24T16:11:07.449Z,14.54
2019-02-24T16:12:07.407Z,14.43
2019-02-24T16:13:16.437Z,14.31
2019-02-24T16:14:08.385Z,14.31
2019-02-24T16:15:07.379Z,14.37
2019-02-24T16:16:07.361Z,14.42
2019-02-24T16:17:07.350Z,14.39
2019-02-24T16:18:07.354Z,14.31
2019-02-24T16:19:07.327Z,14.37
2019-02-24T16:20:07.318Z,14.28
2019-02-24T16:21:07.310Z,14.32
2019-02-24T16:22:07.298Z,14.31
2019-02-24T16:23:07.292Z,14.29
2019-02-24T16:24:07.269Z,14.29
2019-02-24T16:25:07.265Z,14.31
2019-02-24T16:26:07.251Z,14.16
2019-02-24T16:27:07.237Z,14.24
2019-02-24T16:28:07.238Z,14.28
2019-02-24T16:29:07.221Z,14.07
2019-02-24T16:30:07.203Z,14.13
2019-02-24T16:31:07.193Z,14.07
2019-02-24T16:32:07.184Z,14.02
2019-02-24T16:33:10.504Z,14.07
2019-02-24T16:34:07.157Z,13.96
2019-02-24T16:35:07.159Z,14.10
2019-02-24T16:36:07.160Z,14.04
2019-02-24T16:37:07.123Z,13.98
2019-02-24T16:38:07.127Z,13.91
2019-02-24T16:39:07.102Z,14.01
2019-02-24T16:40:07.090Z,13.89
2019-02-24T16:41:07.081Z,13.87
2019-02-24T16:42:07.070Z,13.87
2019-02-24T16:43:07.064Z,13.74
2019-02-24T16:44:07.046Z,13.76
2019-02-24T16:45:07.035Z,13.73
2019-02-24T16:46:07.024Z,13.65
2019-02-24T16:47:07.013Z,13.55
2019-02-24T16:48:07.013Z,13.63
2019-02-24T16:49:06.990Z,13.51
2019-02-24T16:50:06.978Z,13.54
2019-02-24T16:51:06.967Z,13.51
2019-02-24T16:52:06.959Z,13.33
2019-02-24T16:53:06.997Z,13.30
2019-02-24T16:54:06.940Z,13.25
2019-02-24T16:55:06.919Z,13.24
2019-02-24T16:56:06.909Z,13.17
2019-02-24T16:57:07.536Z,13.09
2019-02-24T16:58:06.895Z,13.09
2019-02-24T16:59:06.875Z,13.12
2019-02-24T17:00:06.863Z,13.03
2019-02-24T17:01:06.852Z,12.97
2019-02-24T17:02:06.840Z,13.00
2019-02-24T17:03:06.857Z,12.85
2019-02-24T17:04:06.816Z,12.96
2019-02-24T17:05:06.807Z,12.92
2019-02-24T17:06:06.795Z,12.84
2019-02-24T17:07:06.783Z,12.88
2019-02-24T17:08:06.772Z,12.81
2019-02-24T17:09:06.770Z,12.87
2019-02-24T17:10:06.750Z,12.77
2019-02-24T17:11:07.741Z,12.75
2019-02-24T17:12:06.726Z,12.88
2019-02-24T17:13:06.716Z,12.69
2019-02-24T17:14:06.722Z,12.67
2019-02-24T17:15:06.693Z,12.60
2019-02-24T17:16:06.681Z,12.57
2019-02-24T17:17:06.668Z,12.44
2019-02-24T17:18:06.662Z,12.46
2019-02-24T17:19:06.658Z,12.51
2019-02-24T17:20:06.637Z,12.34
2019-02-24T17:21:06.625Z,12.39
2019-02-24T17:22:06.614Z,12.27
2019-02-24T17:23:06.603Z,12.15
2019-02-24T17:24:06.598Z,12.19
2019-02-24T17:25:06.579Z,11.97
2019-02-24T17:26:06.569Z,12.01
2019-02-24T17:27:06.565Z,11.96
2019-02-24T17:28:06.552Z,11.82
2019-02-24T17:29:06.543Z,11.70
2019-02-24T17:30:06.522Z,11.67
2019-02-24T17:31:07.117Z,11.59
2019-02-24T17:32:06.502Z,11.53
2019-02-24T17:33:06.491Z,11.50
2019-02-24T17:34:06.486Z,11.38
2019-02-24T17:35:06.465Z,11.31
2019-02-24T17:36:07.676Z,11.25
2019-02-24T17:37:06.448Z,11.16
2019-02-24T17:38:06.437Z,11.09
2019-02-24T17:39:06.427Z,11.07
2019-02-24T17:40:06.408Z,10.98
2019-02-24T17:41:06.397Z,10.98
2019-02-24T17:42:06.386Z,10.84
2019-02-24T17:43:06.375Z,10.76
2019-02-24T17:44:06.372Z,10.77
2019-02-24T17:45:06.351Z,10.70
2019-02-24T17:46:06.344Z,10.70
2019-02-24T17:47:06.330Z,10.59
2019-02-24T17:48:06.320Z,10.59
2019-02-24T17:49:06.319Z,10.51
2019-02-24T17:50:06.302Z,10.55
2019-02-24T17:51:06.285Z,10.56
2019-02-24T17:52:06.273Z,10.59
2019-02-24T17:53:06.262Z,10.56
2019-02-24T17:54:06.264Z,10.55
2019-02-24T17:55:06.242Z,10.47
2019-02-24T17:56:06.227Z,10.47
2019-02-24T17:57:06.218Z,10.53
2019-02-24T17:58:06.204Z,10.56
2019-02-24T17:59:06.200Z,10.58
2019-02-24T18:00:06.188Z,10.42
2019-02-24T18:01:06.169Z,10.44
2019-02-24T18:02:06.176Z,10.40
2019-02-24T18:03:06.147Z,10.34
2019-02-24T18:04:06.147Z,10.39
2019-02-24T18:05:06.123Z,10.30
2019-02-24T18:06:06.116Z,10.25
2019-02-24T18:07:06.100Z,10.25
2019-02-24T18:08:06.093Z,10.21
2019-02-24T18:09:06.102Z,10.25
2019-02-24T18:10:06.070Z,10.22
2019-02-24T18:11:06.055Z,10.17
2019-02-24T18:12:06.043Z,10.21
2019-02-24T18:13:06.033Z,10.14
2019-02-24T18:14:06.028Z,10.03
2019-02-24T18:15:06.025Z,10.14
2019-02-24T18:16:06.035Z,10.12
2019-02-24T18:17:05.991Z,10.01
2019-02-24T18:18:05.980Z,9.97
2019-02-24T18:19:05.966Z,9.97
2019-02-24T18:20:05.962Z,9.91
2019-02-24T18:21:06.618Z,9.89
2019-02-24T18:22:05.930Z,9.82
2019-02-24T18:23:05.925Z,9.73
2019-02-24T18:24:05.908Z,9.73
2019-02-24T18:25:05.906Z,9.79
2019-02-24T18:26:05.886Z,9.67
2019-02-24T18:27:05.875Z,9.66
2019-02-24T18:28:05.863Z,9.53
2019-02-24T18:29:05.856Z,9.50
2019-02-24T18:30:05.852Z,9.52
2019-02-24T18:31:05.828Z,9.50
2019-02-24T18:32:05.816Z,9.49
2019-02-24T18:33:05.806Z,9.52
2019-02-24T18:34:05.802Z,9.35
2019-02-24T18:35:05.816Z,9.49
2019-02-24T18:36:05.773Z,9.35
2019-02-24T18:37:05.759Z,9.43
2019-02-24T18:38:05.754Z,9.27
2019-02-24T18:39:05.737Z,9.38
2019-02-24T18:40:05.737Z,9.34
2019-02-24T18:41:05.718Z,9.27
2019-02-24T18:42:05.704Z,9.28
2019-02-24T18:43:05.691Z,9.31
2019-02-24T18:44:05.685Z,9.30
2019-02-24T18:45:05.668Z,9.24
2019-02-24T18:46:05.669Z,9.20
2019-02-24T18:47:05.649Z,9.18
2019-02-24T18:48:05.635Z,9.16
2019-02-24T18:49:05.624Z,9.06
2019-02-24T18:50:05.619Z,9.09
2019-02-24T18:51:05.612Z,9.10
2019-02-24T18:52:05.590Z,9.06
2019-02-24T18:53:06.472Z,8.93
2019-02-24T18:54:05.572Z,8.96
2019-02-24T18:55:06.840Z,8.91
2019-02-24T18:56:05.558Z,8.97
2019-02-24T18:57:05.533Z,8.91
2019-02-24T18:58:05.523Z,8.86
2019-02-24T18:59:05.519Z,8.79
2019-02-24T19:00:05.501Z,8.79
2019-02-24T19:01:05.498Z,8.60
2019-02-24T19:02:05.480Z,8.60
2019-02-24T19:03:05.467Z,8.55
2019-02-24T19:04:05.458Z,8.60
2019-02-24T19:05:05.445Z,8.63
2019-02-24T19:06:05.432Z,8.62
2019-02-24T19:07:05.434Z,8.69
2019-02-24T19:08:05.412Z,8.72
2019-02-24T19:09:05.398Z,8.76
2019-02-24T19:10:05.387Z,8.79
2019-02-24T19:11:05.377Z,8.75
2019-02-24T19:12:05.371Z,8.86
2019-02-24T19:13:05.354Z,8.76
2019-02-24T19:14:05.341Z,8.75
2019-02-24T19:15:05.329Z,8.78
2019-02-24T19:16:05.320Z,8.71
2019-02-24T19:17:05.317Z,8.66
2019-02-24T19:18:05.299Z,8.75
2019-02-24T19:19:05.286Z,8.83
2019-02-24T19:20:05.275Z,8.68
2019-02-24T19:21:05.265Z,8.75
2019-02-24T19:22:07.248Z,8.66
2019-02-24T19:23:05.239Z,8.62
2019-02-24T19:24:05.229Z,8.69
2019-02-24T19:25:05.221Z,8.76
2019-02-24T19:26:05.206Z,8.78
2019-02-24T19:27:05.208Z,8.71
2019-02-24T19:28:05.220Z,8.76
2019-02-24T19:29:05.174Z,8.79
2019-02-24T19:30:05.164Z,8.75
2019-02-24T19:31:05.148Z,8.79
2019-02-24T19:32:05.149Z,8.83
2019-02-24T19:33:05.130Z,8.72
2019-02-24T19:34:06.999Z,8.78
2019-02-24T19:35:05.106Z,8.83
2019-02-24T19:36:05.106Z,8.71
2019-02-24T19:37:05.091Z,8.79
2019-02-24T19:38:05.075Z,8.79
2019-02-24T19:39:05.061Z,8.78
2019-02-24T19:40:05.051Z,8.83
2019-02-24T19:41:05.037Z,8.78
2019-02-24T19:42:05.041Z,8.79
2019-02-24T19:43:05.014Z,8.78
2019-02-24T19:44:05.008Z,8.60
2019-02-24T19:45:04.998Z,8.69
2019-02-24T19:46:04.981Z,8.63
2019-02-24T19:47:04.979Z,8.57
2019-02-24T19:48:04.971Z,8.68
2019-02-24T19:49:04.949Z,8.60
2019-02-24T19:50:04.943Z,8.60
2019-02-24T19:51:04.924Z,8.60
2019-02-24T19:52:04.915Z,8.57
2019-02-24T19:53:04.934Z,8.50
2019-02-24T19:54:04.889Z,8.47
2019-02-24T19:55:04.911Z,8.45
2019-02-24T19:56:04.874Z,8.53
2019-02-24T19:57:04.860Z,8.44
2019-02-24T19:58:04.860Z,8.47
2019-02-24T19:59:04.834Z,8.42
2019-02-24T20:00:04.843Z,8.36
2019-02-24T20:01:04.865Z,8.44
2019-02-24T20:02:04.800Z,8.36
2019-02-24T20:03:04.815Z,8.30
2019-02-24T20:04:04.814Z,8.40
2019-02-24T20:05:04.765Z,8.30
2019-02-24T20:06:04.763Z,8.28
2019-02-24T20:07:04.743Z,8.29
2019-02-24T20:08:04.750Z,8.29
2019-02-24T20:09:04.750Z,8.17
2019-02-24T20:10:04.716Z,8.25
2019-02-24T20:11:04.698Z,8.28
2019-02-24T20:12:04.701Z,8.20
2019-02-24T20:13:04.674Z,8.15
2019-02-24T20:14:04.671Z,8.18
2019-02-24T20:15:04.652Z,8.12
2019-02-24T20:16:04.646Z,7.97
2019-02-24T20:17:04.629Z,8.07
2019-02-24T20:18:04.638Z,8.02
2019-02-24T20:19:04.633Z,7.92
2019-02-24T20:20:04.599Z,7.89
2019-02-24T20:21:04.605Z,8.00
2019-02-24T20:22:04.574Z,7.84
2019-02-24T20:23:04.569Z,7.78
2019-02-24T20:24:04.573Z,7.74
2019-02-24T20:25:04.554Z,7.78
2019-02-24T20:26:04.551Z,7.60
2019-02-24T20:27:04.529Z,7.67
2019-02-24T20:28:04.505Z,7.53
2019-02-24T20:29:04.509Z,7.52
2019-02-24T20:30:04.520Z,7.44
2019-02-24T20:31:04.495Z,7.49
2019-02-24T20:32:04.462Z,7.35
2019-02-24T20:33:04.465Z,7.38
2019-02-24T20:34:04.438Z,7.38
2019-02-24T20:35:04.453Z,7.24
2019-02-24T20:36:04.414Z,7.29
2019-02-24T20:37:04.404Z,7.22
2019-02-24T20:38:04.412Z,7.23
2019-02-24T20:39:04.380Z,7.22
2019-02-24T20:40:04.379Z,7.24
2019-02-24T20:41:04.363Z,7.19
2019-02-24T20:42:04.351Z,7.17
2019-02-24T20:43:04.338Z,7.26
2019-02-24T20:44:04.328Z,7.23
2019-02-24T20:45:04.329Z,7.22
2019-02-24T20:46:04.311Z,7.12
2019-02-24T20:47:04.293Z,7.12
2019-02-24T20:48:04.293Z,7.02
2019-02-24T20:49:04.273Z,7.01
2019-02-24T20:50:04.274Z,7.02
2019-02-24T20:51:04.246Z,6.95
2019-02-24T20:52:04.244Z,6.98
2019-02-24T20:53:04.243Z,6.97
2019-02-24T20:54:04.219Z,7.05
2019-02-24T20:55:04.212Z,6.98
2019-02-24T20:56:04.188Z,6.99
2019-02-24T20:57:05.742Z,6.95
2019-02-24T20:58:04.166Z,6.98
2019-02-24T20:59:04.155Z,6.91
2019-02-24T21:00:04.152Z,6.84
2019-02-24T21:01:04.136Z,6.83
2019-02-24T21:02:04.142Z,6.84
2019-02-24T21:03:04.108Z,6.83
2019-02-24T21:04:04.101Z,6.81
2019-02-24T21:05:04.100Z,6.80
2019-02-24T21:06:04.092Z,6.80
2019-02-24T21:07:04.062Z,6.69
2019-02-24T21:08:04.057Z,6.76
2019-02-24T21:09:04.042Z,6.63
2019-02-24T21:10:04.085Z,6.71
2019-02-24T21:11:04.027Z,6.62
2019-02-24T21:12:04.019Z,6.61
2019-02-24T21:13:04.012Z,6.62
2019-02-24T21:14:03.988Z,6.59
2019-02-24T21:15:03.991Z,6.66
2019-02-24T21:16:03.969Z,6.53
2019-02-24T21:17:03.952Z,6.62
2019-02-24T21:18:03.938Z,6.58
2019-02-24T21:19:03.927Z,6.54
2019-02-24T21:20:03.925Z,6.54
2019-02-24T21:21:03.922Z,6.66
2019-02-24T21:22:03.896Z,6.58
2019-02-24T21:23:03.888Z,6.50
2019-02-24T21:24:03.870Z,6.54
2019-02-24T21:25:03.867Z,6.38
2019-02-24T21:26:03.867Z,6.43
2019-02-24T21:27:03.847Z,6.30
2019-02-24T21:28:04.093Z,6.30
2019-02-24T21:29:03.891Z,6.29
2019-02-24T21:30:03.802Z,6.25
2019-02-24T21:31:03.800Z,6.32
2019-02-24T21:32:03.795Z,6.29
2019-02-24T21:33:03.770Z,6.26
2019-02-24T21:34:03.758Z,6.29
2019-02-24T21:35:03.750Z,6.21
2019-02-24T21:36:03.737Z,6.21
2019-02-24T21:37:03.743Z,6.22
2019-02-24T21:38:03.777Z,6.33
2019-02-24T21:39:03.701Z,6.32
2019-02-24T21:40:03.721Z,6.19
2019-02-24T21:41:03.680Z,6.30
2019-02-24T21:42:03.730Z,6.25
2019-02-24T21:43:03.663Z,6.21
2019-02-24T21:44:04.315Z,6.22
2019-02-24T21:45:03.638Z,6.13
2019-02-24T21:46:03.634Z,6.10
2019-02-24T21:47:03.630Z,6.11
2019-02-24T21:48:03.607Z,6.16
2019-02-24T21:49:03.589Z,6.11
2019-02-24T21:50:03.576Z,6.07
2019-02-24T21:51:03.570Z,6.13
2019-02-24T21:52:03.569Z,6.19
2019-02-24T21:53:03.542Z,6.21
2019-02-24T21:54:03.532Z,6.16
2019-02-24T21:55:03.533Z,6.13
2019-02-24T21:56:03.508Z,6.09
2019-02-24T21:57:03.527Z,6.03
2019-02-24T21:58:04.405Z,6.18
2019-02-24T21:59:03.476Z,6.18
2019-02-24T22:00:03.467Z,6.13
2019-02-24T22:01:03.451Z,6.09
2019-02-24T22:02:03.461Z,6.18
2019-02-24T22:03:03.433Z,6.21
2019-02-24T22:04:03.422Z,6.16
2019-02-24T22:05:03.415Z,6.13
2019-02-24T22:06:03.405Z,6.14
2019-02-24T22:07:03.382Z,6.11
2019-02-24T22:08:03.412Z,6.18
2019-02-24T22:09:03.364Z,6.10
2019-02-24T22:10:03.351Z,6.18
2019-02-24T22:11:03.338Z,6.10
2019-02-24T22:12:03.336Z,6.18
2019-02-24T22:13:03.332Z,6.10
2019-02-24T22:14:03.305Z,6.10
2019-02-24T22:15:03.321Z,6.11
2019-02-24T22:16:03.363Z,6.04
2019-02-24T22:17:03.281Z,6.07
2019-02-24T22:18:03.362Z,6.07
2019-02-24T22:19:03.248Z,5.93
2019-02-24T22:20:03.237Z,5.92
2019-02-24T22:21:03.247Z,6.01
2019-02-24T22:22:03.218Z,5.98
2019-02-24T22:23:03.222Z,6.00
2019-02-24T22:24:03.194Z,5.92
2019-02-24T22:25:03.180Z,5.93
2019-02-24T22:26:03.178Z,5.93
2019-02-24T22:27:03.237Z,5.91
2019-02-24T22:28:03.147Z,5.91
2019-02-24T22:29:03.146Z,5.93
2019-02-24T22:30:03.129Z,5.98
2019-02-24T22:31:03.145Z,6.03
2019-02-24T22:32:03.106Z,6.00
2019-02-24T22:33:03.094Z,5.95
2019-02-24T22:34:03.089Z,6.06
2019-02-24T22:35:03.070Z,5.95
2019-02-24T22:36:03.059Z,5.93
2019-02-24T22:37:03.045Z,5.89
2019-02-24T22:38:03.032Z,5.92
2019-02-24T22:39:03.035Z,5.96
2019-02-24T22:40:03.014Z,5.89
2019-02-24T22:41:03.026Z,5.95
2019-02-24T22:42:03.003Z,5.89
2019-02-24T22:43:03.009Z,5.91
2019-02-24T22:44:02.993Z,5.89
2019-02-24T22:45:02.954Z,5.93
2019-02-24T22:46:02.942Z,5.83
2019-02-24T22:47:02.936Z,5.91
2019-02-24T22:48:03.281Z,5.85
2019-02-24T22:49:02.926Z,5.78
2019-02-24T22:50:02.896Z,5.82
2019-02-24T22:51:02.887Z,5.81
2019-02-24T22:52:02.878Z,5.82
2019-02-24T22:53:02.873Z,5.83
2019-02-24T22:54:02.852Z,5.85
2019-02-24T22:55:02.850Z,5.82
2019-02-24T22:56:02.838Z,5.83
2019-02-24T22:57:02.821Z,5.82
2019-02-24T22:58:02.815Z,5.82
2019-02-24T22:59:02.795Z,5.82
2019-02-24T23:00:02.814Z,5.92
2019-02-24T23:01:02.775Z,5.88
2019-02-24T23:02:02.761Z,5.77
2019-02-24T23:03:02.751Z,5.73
2019-02-24T23:04:02.739Z,5.78
2019-02-24T23:05:02.781Z,5.77
2019-02-24T23:06:02.719Z,5.67
2019-02-24T23:07:02.716Z,5.70
2019-02-24T23:08:02.700Z,5.68
2019-02-24T23:09:02.683Z,5.68
2019-02-24T23:10:02.691Z,5.67
2019-02-24T23:11:02.661Z,5.67
2019-02-24T23:12:02.651Z,5.73
2019-02-24T23:13:02.638Z,5.67
2019-02-24T23:14:02.626Z,5.60
2019-02-24T23:15:02.632Z,5.66
2019-02-24T23:16:02.643Z,5.60
2019-02-24T23:17:02.594Z,5.60
2019-02-24T23:18:02.593Z,5.55
2019-02-24T23:19:02.580Z,5.53
2019-02-24T23:20:02.595Z,5.64
2019-02-24T23:21:02.574Z,5.64
2019-02-24T23:22:02.545Z,5.67
2019-02-24T23:23:02.523Z,5.71
2019-02-24T23:24:02.513Z,5.73
2019-02-24T23:25:02.529Z,5.70
2019-02-24T23:26:02.493Z,5.75
2019-02-24T23:27:02.498Z,5.77
2019-02-24T23:28:02.475Z,5.77
2019-02-24T23:29:02.458Z,5.89
2019-02-24T23:30:02.456Z,5.81
2019-02-24T23:31:02.442Z,5.86
2019-02-24T23:32:02.428Z,5.89
2019-02-24T23:33:02.409Z,5.92
2019-02-24T23:34:02.400Z,5.89
2019-02-24T23:35:02.390Z,5.89
2019-02-24T23:36:02.388Z,5.92
2019-02-24T23:37:02.368Z,5.88
2019-02-24T23:38:02.366Z,5.82
2019-02-24T23:39:02.344Z,5.86
2019-02-24T23:40:02.335Z,5.81
2019-02-24T23:41:02.338Z,5.75
2019-02-24T23:42:02.309Z,5.74
2019-02-24T23:43:02.309Z,5.78
2019-02-24T23:44:02.288Z,5.73
2019-02-24T23:45:09.741Z,5.71
2019-02-24T23:46:03.274Z,5.66
2019-02-24T23:47:02.258Z,5.66
2019-02-24T23:48:02.241Z,5.52
2019-02-24T23:49:02.232Z,5.57
2019-02-24T23:50:02.220Z,5.56
2019-02-24T23:51:02.224Z,5.57
2019-02-24T23:52:02.203Z,5.50
2019-02-24T23:53:02.185Z,5.41
2019-02-24T23:54:02.177Z,5.40
2019-02-24T23:55:02.184Z,5.48
2019-02-24T23:56:02.189Z,5.57
2019-02-24T23:57:02.143Z,5.60
2019-02-24T23:58:02.135Z,5.45
2019-02-24T23:59:02.120Z,5.52
